createdAt,value
2022-10-23T04:01:14.541Z,12.90
2022-10-23T04:03:42.543Z,13.20
2022-10-23T04:06:10.732Z,12.90
2022-10-23T04:08:38.974Z,13.00
2022-10-23T04:11:07.222Z,12.90
2022-10-23T04:13:35.164Z,13.00
2022-10-23T04:16:06.001Z,12.80
2022-10-23T04:18:37.318Z,12.80
2022-10-23T04:21:05.378Z,12.70
2022-10-23T04:23:33.404Z,12.70
2022-10-23T04:26:01.516Z,12.70
2022-10-23T04:30:58.361Z,12.60
2022-10-23T04:33:26.794Z,12.50
2022-10-23T04:35:56.542Z,12.50
2022-10-23T04:38:24.835Z,12.40
2022-10-23T04:40:52.811Z,12.40
2022-10-23T04:43:20.859Z,12.30
2022-10-23T04:48:19.609Z,12.30
2022-10-23T04:50:58.357Z,12.30
2022-10-23T04:53:26.552Z,12.30
2022-10-23T04:55:57.184Z,12.20
2022-10-23T04:58:27.189Z,12.00
2022-10-23T05:00:56.018Z,12.20
2022-10-23T05:03:25.808Z,12.20
2022-10-23T05:05:56.624Z,12.20
2022-10-23T05:08:24.852Z,12.20
2022-10-23T05:10:52.994Z,12.20
2022-10-23T05:13:21.739Z,12.50
2022-10-23T05:15:50.821Z,12.10
2022-10-23T05:18:25.239Z,12.20
2022-10-23T05:21:00.213Z,12.20
2022-10-23T05:23:32.237Z,12.20
2022-10-23T05:26:03.111Z,12.10
2022-10-23T05:28:31.499Z,12.10
2022-10-23T05:31:01.970Z,12.00
2022-10-23T05:33:32.238Z,12.10
2022-10-23T05:36:02.541Z,12.10
2022-10-23T05:38:35.277Z,12.30
2022-10-23T05:41:03.348Z,12.00
2022-10-23T05:43:31.444Z,12.10
2022-10-23T05:45:59.944Z,12.00
2022-10-23T05:48:34.624Z,11.90
2022-10-23T05:51:10.837Z,12.10
2022-10-23T05:53:41.754Z,12.00
2022-10-23T05:56:10.975Z,12.00
2022-10-23T05:58:39.304Z,11.90
2022-10-23T06:01:09.036Z,12.00
2022-10-23T06:03:38.276Z,12.60
2022-10-23T06:06:08.977Z,12.60
2022-10-23T06:08:37.260Z,12.20
2022-10-23T06:11:11.049Z,12.00
2022-10-23T06:13:39.929Z,12.00
2022-10-23T06:16:12.972Z,12.00
2022-10-23T06:18:41.775Z,12.00
2022-10-23T06:21:11.810Z,12.00
2022-10-23T06:23:42.101Z,12.10
2022-10-23T06:26:12.607Z,12.00
2022-10-23T06:28:40.764Z,12.00
2022-10-23T06:31:10.497Z,12.30
2022-10-23T06:33:38.785Z,12.00
2022-10-23T06:36:10.296Z,12.10
2022-10-23T06:38:40.648Z,12.20
2022-10-23T06:41:15.558Z,12.80
2022-10-23T06:43:43.969Z,12.20
2022-10-23T06:46:11.959Z,12.30
2022-10-23T06:48:40.017Z,12.40
2022-10-23T06:51:11.385Z,12.00
2022-10-23T06:53:41.281Z,12.50
2022-10-23T06:56:10.707Z,12.40
2022-10-23T06:58:41.891Z,13.20
2022-10-23T07:01:13.766Z,13.00
2022-10-23T07:03:41.972Z,12.60
2022-10-23T07:06:12.088Z,12.60
2022-10-23T07:08:42.057Z,12.60
2022-10-23T07:11:13.146Z,12.60
2022-10-23T07:13:42.951Z,12.40
2022-10-23T07:16:14.036Z,13.00
2022-10-23T07:18:42.403Z,12.90
2022-10-23T07:21:10.482Z,12.90
2022-10-23T07:23:38.618Z,13.00
2022-10-23T07:26:10.501Z,13.20
2022-10-23T07:28:41.318Z,13.30
2022-10-23T07:31:10.484Z,13.30
2022-10-23T07:33:38.428Z,13.50
2022-10-23T07:36:07.563Z,13.60
2022-10-23T07:38:36.529Z,13.90
2022-10-23T07:41:07.801Z,13.90
2022-10-23T07:43:39.716Z,14.00
2022-10-23T07:46:09.603Z,13.80
2022-10-23T07:48:38.434Z,14.30
2022-10-23T07:51:10.706Z,14.50
2022-10-23T07:53:40.612Z,14.50
2022-10-23T07:56:16.482Z,14.60
2022-10-23T07:58:45.835Z,14.70
2022-10-23T08:01:20.156Z,14.30
2022-10-23T08:03:48.334Z,15.30
2022-10-23T08:06:16.443Z,14.90
2022-10-23T08:11:16.492Z,14.80
2022-10-23T08:13:46.128Z,15.30
2022-10-23T08:16:14.128Z,15.30
2022-10-23T08:18:42.805Z,15.20
2022-10-23T08:21:11.457Z,15.20
2022-10-23T08:23:39.830Z,15.40
2022-10-23T08:26:08.546Z,15.30
2022-10-23T08:28:37.311Z,15.30
2022-10-23T08:31:12.937Z,15.40
2022-10-23T08:33:41.693Z,15.60
2022-10-23T08:36:19.489Z,15.50
2022-10-23T08:38:48.204Z,15.50
2022-10-23T08:41:28.501Z,15.40
2022-10-23T08:44:06.868Z,15.60
2022-10-23T08:46:42.939Z,15.70
2022-10-23T08:49:24.839Z,16.00
2022-10-23T08:51:56.775Z,15.90
2022-10-23T08:54:34.434Z,16.10
2022-10-23T08:57:11.980Z,16.40
2022-10-23T08:59:47.033Z,16.30
2022-10-23T09:02:25.382Z,16.30
2022-10-23T09:04:56.636Z,16.70
2022-10-23T09:07:38.743Z,16.90
2022-10-23T09:10:34.053Z,17.10
2022-10-23T09:13:21.766Z,17.30
2022-10-23T09:16:03.651Z,17.30
2022-10-23T09:18:33.532Z,17.30
2022-10-23T09:21:02.257Z,17.40
2022-10-23T09:23:30.265Z,17.50
2022-10-23T09:26:02.579Z,17.70
2022-10-23T09:28:33.520Z,17.80
2022-10-23T09:31:08.020Z,18.00
2022-10-23T09:33:37.970Z,18.30
2022-10-23T09:36:09.375Z,18.40
2022-10-23T09:38:40.792Z,18.50
2022-10-23T09:41:17.625Z,18.60
2022-10-23T09:43:45.862Z,18.70
2022-10-23T09:46:14.203Z,18.80
2022-10-23T09:48:43.653Z,18.90
2022-10-23T09:51:21.696Z,19.20
2022-10-23T09:53:54.525Z,19.30
2022-10-23T09:56:30.477Z,19.40
2022-10-23T09:59:01.909Z,19.60
2022-10-23T10:01:33.812Z,19.80
2022-10-23T10:04:03.931Z,19.90
2022-10-23T10:06:34.562Z,20.10
2022-10-23T10:09:11.650Z,20.30
2022-10-23T10:11:47.121Z,20.50
2022-10-23T10:14:53.960Z,20.70
2022-10-23T10:17:35.263Z,21.00
2022-10-23T10:20:39.595Z,21.20
2022-10-23T10:23:17.391Z,21.40
2022-10-23T10:25:57.415Z,21.50
2022-10-23T10:28:46.347Z,21.30
2022-10-23T10:31:27.028Z,21.70
2022-10-23T10:34:11.301Z,22.10
2022-10-23T10:36:51.797Z,22.30
2022-10-23T10:39:38.251Z,22.50
2022-10-23T10:42:32.157Z,22.40
2022-10-23T10:45:19.517Z,22.50
2022-10-23T10:48:12.246Z,23.00
2022-10-23T10:50:51.920Z,22.90
2022-10-23T10:53:32.618Z,23.00
2022-10-23T10:56:05.016Z,23.10
2022-10-23T10:58:40.886Z,23.60
2022-10-23T11:01:26.319Z,23.80
2022-10-23T11:04:01.150Z,23.90
2022-10-23T11:06:36.329Z,24.30
2022-10-23T11:09:21.182Z,24.70
2022-10-23T11:11:50.411Z,25.10
2022-10-23T11:14:20.773Z,25.10
2022-10-23T11:16:52.398Z,25.10
2022-10-23T11:19:27.472Z,25.10
2022-10-23T11:22:03.107Z,25.00
2022-10-23T11:25:12.348Z,24.90
2022-10-23T11:28:03.372Z,24.70
2022-10-23T11:30:46.652Z,24.90
2022-10-23T11:34:23.400Z,24.80
2022-10-23T11:36:56.431Z,24.80
2022-10-23T11:39:29.367Z,24.90
2022-10-23T11:42:01.315Z,25.00
2022-10-23T11:44:43.410Z,25.00
2022-10-23T11:47:40.401Z,25.00
2022-10-23T11:50:28.679Z,24.70
2022-10-23T11:53:15.875Z,24.60
2022-10-23T11:56:00.530Z,24.60
2022-10-23T11:58:44.261Z,24.70
2022-10-23T12:01:32.254Z,24.60
2022-10-23T12:04:05.373Z,24.60
2022-10-23T12:06:40.788Z,25.10
2022-10-23T12:09:26.308Z,25.60
2022-10-23T12:12:17.111Z,26.10
2022-10-23T12:14:49.321Z,26.50
2022-10-23T12:17:35.704Z,26.60
2022-10-23T12:20:37.759Z,26.80
2022-10-23T12:24:05.142Z,26.70
2022-10-23T12:27:12.375Z,26.50
2022-10-23T12:29:59.376Z,26.10
2022-10-23T12:32:54.280Z,26.10
2022-10-23T12:36:12.221Z,25.90
2022-10-23T12:38:47.062Z,25.50
2022-10-23T12:41:17.262Z,25.10
2022-10-23T12:43:52.358Z,24.70
2022-10-23T12:46:32.763Z,24.40
2022-10-23T12:49:04.424Z,24.10
2022-10-23T12:51:35.036Z,23.90
2022-10-23T12:54:04.142Z,23.80
2022-10-23T12:56:38.911Z,23.70
2022-10-23T12:59:16.350Z,23.40
2022-10-23T13:01:49.196Z,23.10
2022-10-23T13:04:29.077Z,22.60
2022-10-23T13:07:00.615Z,22.40
2022-10-23T13:09:33.510Z,22.20
2022-10-23T13:12:06.500Z,22.30
2022-10-23T13:14:42.038Z,22.20
2022-10-23T13:17:13.776Z,22.00
2022-10-23T13:19:41.746Z,21.80
2022-10-23T13:22:20.944Z,21.70
2022-10-23T13:24:49.558Z,21.60
2022-10-23T13:27:27.869Z,21.50
2022-10-23T13:29:55.857Z,21.40
2022-10-23T13:32:29.583Z,21.40
2022-10-23T13:35:17.013Z,21.60
2022-10-23T13:37:48.322Z,22.00
2022-10-23T13:40:25.651Z,22.50
2022-10-23T13:42:56.035Z,22.70
2022-10-23T13:45:27.145Z,22.90
2022-10-23T13:47:56.495Z,23.40
2022-10-23T13:50:24.410Z,23.40
2022-10-23T13:52:52.707Z,23.40
2022-10-23T13:55:25.800Z,23.40
2022-10-23T13:57:53.904Z,23.40
2022-10-23T14:00:22.040Z,22.90
2022-10-23T14:02:50.125Z,23.10
2022-10-23T14:05:19.484Z,22.80
2022-10-23T14:07:47.518Z,22.70
2022-10-23T14:10:18.016Z,22.60
2022-10-23T14:12:46.255Z,22.40
2022-10-23T14:15:14.848Z,22.30
2022-10-23T14:17:42.855Z,22.00
2022-10-23T14:20:12.578Z,22.00
2022-10-23T14:22:42.252Z,21.70
2022-10-23T14:25:10.773Z,21.40
2022-10-23T14:27:38.789Z,21.30
2022-10-23T14:30:08.605Z,21.30
2022-10-23T14:32:36.733Z,21.10
2022-10-23T14:35:06.656Z,21.20
2022-10-23T14:37:35.709Z,21.10
2022-10-23T14:40:06.340Z,20.70
2022-10-23T14:42:34.423Z,20.90
2022-10-23T14:45:03.107Z,20.70
2022-10-23T14:47:31.929Z,20.80
2022-10-23T14:49:59.941Z,20.70
2022-10-23T14:52:28.023Z,20.80
2022-10-23T14:54:56.069Z,20.90
2022-10-23T14:57:25.536Z,20.90
2022-10-23T14:59:53.641Z,20.80
2022-10-23T15:02:21.653Z,20.60
2022-10-23T15:04:49.636Z,20.50
2022-10-23T15:07:17.622Z,20.00
2022-10-23T15:09:45.697Z,20.20
2022-10-23T15:12:13.686Z,19.90
2022-10-23T15:14:43.037Z,19.80
2022-10-23T15:17:15.357Z,19.60
2022-10-23T15:19:43.960Z,19.50
2022-10-23T15:22:11.940Z,19.30
2022-10-23T15:24:39.919Z,19.30
2022-10-23T15:29:42.262Z,19.00
2022-10-23T15:32:11.826Z,18.90
2022-10-23T15:34:42.722Z,18.70
2022-10-23T15:37:12.007Z,18.80
2022-10-23T15:39:40.079Z,18.60
2022-10-23T15:42:08.542Z,18.40
2022-10-23T15:44:36.553Z,18.40
2022-10-23T15:47:05.975Z,18.20
2022-10-23T15:49:34.094Z,18.20
2022-10-23T15:52:04.032Z,18.10
2022-10-23T15:54:33.120Z,18.00
2022-10-23T15:57:02.871Z,18.00
2022-10-23T15:59:32.624Z,18.00
2022-10-23T16:02:00.849Z,17.90
2022-10-23T16:04:31.049Z,17.80
2022-10-23T16:06:59.049Z,17.60
2022-10-23T16:09:27.022Z,17.60
2022-10-23T16:11:55.594Z,17.60
2022-10-23T16:14:23.632Z,17.60
2022-10-23T16:16:51.643Z,17.60
2022-10-23T16:19:19.584Z,17.50
2022-10-23T16:21:48.929Z,17.40
2022-10-23T16:24:17.128Z,17.10
2022-10-23T16:26:50.176Z,17.30
2022-10-23T16:29:18.165Z,17.40
2022-10-23T16:31:46.323Z,17.50
2022-10-23T16:34:14.561Z,17.30
2022-10-23T16:36:42.807Z,17.30
2022-10-23T16:39:15.318Z,17.20
2022-10-23T16:41:43.580Z,17.10
2022-10-23T16:44:11.603Z,17.10
2022-10-23T16:46:39.915Z,16.90
2022-10-23T16:49:09.055Z,17.10
2022-10-23T16:51:37.155Z,17.00
2022-10-23T16:54:05.347Z,17.30
2022-10-23T16:56:34.687Z,16.90
2022-10-23T16:59:02.814Z,16.90
2022-10-23T17:01:33.729Z,16.90
2022-10-23T17:04:02.099Z,16.90
2022-10-23T17:06:32.457Z,16.90
2022-10-23T17:09:02.165Z,17.20
2022-10-23T17:11:32.956Z,16.80
2022-10-23T17:14:06.081Z,17.00
2022-10-23T17:16:39.922Z,16.90
2022-10-23T17:19:20.586Z,16.90
2022-10-23T17:21:56.432Z,16.70
2022-10-23T17:24:25.590Z,16.80
2022-10-23T17:26:54.023Z,16.70
2022-10-23T17:29:23.403Z,17.00
2022-10-23T17:31:52.517Z,16.90
2022-10-23T17:34:23.829Z,16.70
2022-10-23T17:36:55.222Z,16.90
2022-10-23T17:39:27.625Z,16.80
2022-10-23T17:41:56.558Z,16.60
2022-10-23T17:44:26.562Z,16.90
2022-10-23T17:46:56.132Z,17.20
2022-10-23T17:49:25.574Z,16.90
2022-10-23T17:51:56.107Z,16.90
2022-10-23T17:54:25.804Z,16.80
2022-10-23T17:56:53.866Z,16.80
2022-10-23T17:59:22.012Z,16.90
2022-10-23T18:01:51.731Z,16.90
2022-10-23T18:04:22.533Z,16.80
2022-10-23T18:06:54.081Z,16.70
2022-10-23T18:09:23.634Z,16.60
2022-10-23T18:11:52.757Z,16.70
2022-10-23T18:14:22.424Z,16.70
2022-10-23T18:16:52.458Z,16.40
2022-10-23T18:19:20.918Z,16.70
2022-10-23T18:21:49.860Z,16.80
2022-10-23T18:24:18.844Z,16.60
2022-10-23T18:26:48.243Z,16.50
2022-10-23T18:29:18.240Z,16.50
2022-10-23T18:31:48.050Z,16.50
2022-10-23T18:34:20.436Z,16.50
2022-10-23T18:36:49.909Z,16.10
2022-10-23T18:39:22.545Z,16.40
2022-10-23T18:41:53.781Z,16.30
2022-10-23T18:44:24.633Z,16.20
2022-10-23T18:46:53.344Z,16.20
2022-10-23T18:49:22.668Z,16.10
2022-10-23T18:51:51.617Z,16.10
2022-10-23T18:54:21.529Z,16.10
2022-10-23T18:56:50.141Z,15.90
2022-10-23T18:59:22.438Z,16.00
2022-10-23T19:01:51.230Z,16.00
2022-10-23T19:04:19.751Z,16.00
2022-10-23T19:06:51.301Z,16.40
2022-10-23T19:09:20.205Z,15.90
2022-10-23T19:11:48.315Z,15.90
2022-10-23T19:14:16.439Z,15.90
2022-10-23T19:16:57.468Z,15.80
2022-10-23T19:19:30.826Z,15.80
2022-10-23T19:22:02.612Z,15.70
2022-10-23T19:24:38.104Z,15.80
2022-10-23T19:27:07.049Z,15.40
2022-10-23T19:29:38.203Z,15.70
2022-10-23T19:32:06.920Z,15.60
2022-10-23T19:34:34.875Z,15.70
2022-10-23T19:37:04.648Z,15.90
2022-10-23T19:39:32.738Z,15.50
2022-10-23T19:42:01.315Z,15.50
2022-10-23T19:44:29.467Z,15.70
2022-10-23T19:46:57.440Z,15.70
2022-10-23T19:49:25.447Z,15.70
2022-10-23T19:51:53.767Z,15.60
2022-10-23T19:54:23.199Z,15.80
2022-10-23T19:56:51.347Z,15.80
2022-10-23T19:59:19.759Z,15.60
2022-10-23T20:01:48.843Z,15.80
2022-10-23T20:04:18.485Z,15.60
2022-10-23T20:06:47.684Z,15.60
2022-10-23T20:09:15.788Z,15.50
2022-10-23T20:11:45.244Z,15.50
2022-10-23T20:14:14.041Z,15.50
2022-10-23T20:16:44.879Z,15.50
2022-10-23T20:19:18.830Z,15.50
2022-10-23T20:21:49.422Z,15.40
2022-10-23T20:24:20.341Z,15.50
2022-10-23T20:26:51.674Z,15.50
2022-10-23T20:29:20.852Z,15.40
2022-10-23T20:31:49.442Z,15.50
2022-10-23T20:34:18.931Z,15.80
2022-10-23T20:36:50.053Z,15.50
2022-10-23T20:39:20.655Z,15.40
2022-10-23T20:41:50.001Z,15.40
2022-10-23T20:44:19.553Z,15.40
2022-10-23T20:46:48.136Z,15.00
2022-10-23T20:49:17.799Z,15.30
2022-10-23T20:51:47.086Z,15.20
2022-10-23T20:54:15.608Z,15.10
2022-10-23T20:56:43.784Z,15.10
2022-10-23T20:59:16.559Z,15.10
